FW0434 Weather Reports


Display with metric or nautical units.
time (UTC)temp
F
wind
direction
speed
MPH
gust
MPH
rain 1hr
in
rain 24hr
in
rain mn
in
humidity
%
barometer
mb
20190618231608 73 360 0.0 7.0 0.00 0.00 0.00 52 1011.1
20190618224631 73 360 1.0 5.0 0.00 0.00 0.00 53 1011.3
20190618223139 73 360 3.0 6.0 0.00 0.00 0.00 50 1011.3
20190618221622 72 360 2.0 8.0 0.00 0.00 0.00 53 1011.6
20190618220245 71 360 6.0 10.0 0.00 0.00 0.00 50 1011.8
20190618214534 72 360 3.0 9.0 0.00 0.00 0.00 50 1011.9
20190618213008 72 360 3.0 11.0 0.00 0.00 0.00 52 1012.1
20190618211616 72 360 5.0 10.0 0.00 0.00 0.00 54 1012.3
20190618204545 71 360 2.0 7.0 0.00 0.00 0.00 57 1012.5
20190618203206 71 360 2.0 9.0 0.00 0.00 0.00 53 1012.6
20190618201549 72 360 6.0 9.0 0.00 0.00 0.00 55 1012.7
20190618200120 70 360 5.0 10.0 0.00 0.00 0.00 56 1012.8
20190618194525 70 360 2.0 9.0 0.00 0.00 0.00 60 1012.9
20190618193125 70 360 3.0 11.0 0.00 0.00 0.00 63 1013.0
20190618191530 69 360 8.0 12.0 0.00 0.00 0.00 58 1013.1
20190618190154 70 360 5.0 11.0 0.00 0.00 0.00 58 1013.3
20190618184547 69 360 6.0 12.0 0.00 0.00 0.00 60 1013.4
20190618183120 68 360 6.0 11.0 0.00 0.00 0.00 61 1013.6
20190618181611 68 360 3.0 12.0 0.00 0.00 0.00 62 1013.6
20190618180126 69 360 6.0 10.0 0.00 0.00 0.00 59 1013.7
20190618174558 69 360 6.0 12.0 0.00 0.00 0.00 60 1013.8
20190618173206 67 360 1.0 8.0 0.00 0.00 0.00 70 1014.0
20190618171522 67 360 3.0 7.0 0.00 0.00 0.00 67 1014.2
20190618170101 66 360 3.0 13.0 0.00 0.00 0.00 66 1014.3
20190618164511 66 360 7.0 11.0 0.00 0.00 0.00 66 1014.4
20190618163120 67 360 7.0 13.0 0.00 0.00 0.00 67 1014.5
20190618161509 66 360 3.0 9.0 0.00 0.00 0.00 71 1014.6
20190618160042 66 360 5.0 11.0 0.00 0.00 0.00 69 1014.7
20190618154501 66 360 8.0 16.0 0.00 0.00 0.00 70 1014.8
20190618153104 66 360 5.0 9.0 0.00 0.00 0.00 70 1014.8
20190618151659 65 360 5.0 10.0 0.00 0.00 0.00 70 1015.1
20190618150109 65 360 5.0 8.0 0.00 0.00 0.00 72 1015.3
20190618144627 64 360 1.0 8.0 0.00 0.00 0.00 75 1015.4
20190618143040 63 360 1.0 8.0 0.00 0.00 0.00 78 1015.5
20190618141614 62 360 3.0 8.0 0.00 0.00 0.00 81 1015.5
20190618140012 61 360 2.0 7.0 0.00 0.00 0.00 82 1015.5
20190618134612 61 360 1.0 6.0 0.00 0.00 0.00 85 1015.5
20190618133004 60 360 1.0 6.0 0.00 0.00 0.00 86 1015.5
20190618131652 59 360 2.0 8.0 0.00 0.00 0.00 88 1015.5
20190618130258 58 360 4.0 8.0 0.00 0.00 0.00 88 1015.4
20190618124549 58 360 3.0 7.0 0.00 0.00 0.00 90 1015.3
20190618123131 57 360 2.0 5.0 0.00 0.00 0.00 91 1015.2
20190618121529 55 360 0.0 4.0 0.00 0.00 0.00 93 1015.2
20190618120135 54 360 1.0 4.0 0.00 0.00 0.00 93 1015.2
20190618114519 53 360 0.0 3.0 0.00 0.00 0.00 93 1015.2
20190618113124 53 360 1.0 3.0 0.00 0.00 0.00 93 1015.1
20190618111549 52 360 0.0 2.0 0.00 0.00 0.00 93 1014.9
20190618110233 52 360 0.0 1.0 0.00 0.00 0.00 93 1014.8
20190618104605 51 360 0.0 1.0 0.00 0.00 0.00 93 1014.8
20190618103120 51 360 0.0 2.0 0.00 0.00 0.00 93 1014.9
20190618101603 52 360 0.0 2.0 0.00 0.00 0.00 92 1015.0
20190618100129 52 360 0.0 1.0 0.00 0.00 0.00 92 1015.0
20190618094619 52 360 0.0 2.0 0.00 0.00 0.00 92 1015.1
20190618093126 52 360 0.0 1.0 0.00 0.00 0.00 91 1015.0
20190618091526 52 360 0.0 1.0 0.00 0.00 0.00 91 1015.0
20190618090129 53 360 0.0 3.0 0.00 0.00 0.00 91 1015.1
20190618083159 52 360 0.0 2.0 0.00 0.00 0.00 92 1015.0
20190618081537 52 360 0.0 0.0 0.00 0.00 0.00 91 1014.9
20190618080150 53 360 0.0 0.0 0.00 0.00 0.00 91 1015.0
20190618074530 53 360 0.0 0.0 0.00 0.00 0.00 91 1015.0
20190618073133 53 360 0.0 0.0 0.00 0.00 0.00 91 1014.9
20190618071521 53 360 0.0 1.0 0.00 0.00 0.00 91 1015.1
20190618070119 53 360 0.0 1.0 0.00 0.00 0.00 92 1015.3
20190618064504 53 360 0.0 0.0 0.00 0.00 0.00 91 1015.5
20190618063102 53 360 0.0 0.0 0.00 0.00 0.00 90 1015.4
20190618060136 54 360 0.0 1.0 0.00 0.00 0.00 90 1015.7
20190618054533 54 360 0.0 0.0 0.00 0.00 0.00 89 1015.6
20190618053046 54 360 0.0 0.0 0.00 0.00 0.00 88 1015.6
20190618051528 55 360 0.0 0.0 0.00 0.00 0.00 87 1015.5
20190618050126 56 360 0.0 0.0 0.00 0.00 0.00 87 1015.6
20190618044534 56 360 0.0 0.0 0.00 0.00 0.00 85 1015.6
20190618043051 57 360 0.0 0.0 0.00 0.00 0.00 84 1015.5
20190618041527 57 360 0.0 0.0 0.00 0.00 0.00 83 1015.3
20190618040147 57 360 0.0 3.0 0.00 0.00 0.00 82 1015.2
20190618034555 58 360 1.0 2.0 0.00 0.00 0.00 81 1015.1
20190618033302 58 360 0.0 0.0 0.00 0.00 0.00 79 1015.1
20190618031559 59 360 1.0 3.0 0.00 0.00 0.00 77 1014.8
20190618024558 61 360 2.0 4.0 0.00 0.00 0.00 73 1014.7
20190618023316 62 360 2.0 4.0 0.00 0.00 0.00 72 1014.5
20190618021559 63 360 3.0 4.0 0.00 0.00 0.00 71 1014.5
20190618020128 64 360 3.0 8.0 0.00 0.00 0.00 68 1014.6
20190618014555 65 360 2.0 5.0 0.00 0.00 0.00 66 1014.5
20190618013120 65 360 3.0 6.0 0.00 0.00 0.00 64 1014.6
20190618011544 66 360 4.0 10.0 0.00 0.00 0.00 62 1014.6
20190618010102 66 360 4.0 6.0 0.00 0.00 0.00 59 1014.5
20190618004547 67 360 4.0 10.0 0.00 0.00 0.00 59 1014.5
20190618003109 67 360 4.0 9.0 0.00 0.00 0.00 56 1014.3
20190618001521 67 360 1.0 8.0 0.00 0.00 0.00 57 1014.2
20190618000208 68 360 3.0 10.0 0.00 0.00 0.00 55 1014.1
20190617234559 69 360 3.0 13.0 0.00 0.00 0.00 54 1014.0
20190617233112 69 360 4.0 10.0 0.00 0.00 0.00 55 1013.9